Time;durP1;ratioP1;P1;durP2;ratioP2;P2;SDS_P1;SDS_P2;PMS_P1;PMS_P2;Temp;Humidity;BMP_temperature;BMP_pressure;BME280_temperature;BME280_humidity;BME280_pressure;Samples;Min_cycle;Max_cycle;Signal;HPM_P1;HPM_P2
2023/11/13 00:01:31;;;;;;;9.15;5.88;;;;;;;7.72;100.00;100654.28;5335117;28;20281;-72
2023/11/13 00:04:03;;;;;;;8.15;6.60;;;;;;;7.68;100.00;100643.25;5334935;28;20097;-71
2023/11/13 00:06:35;;;;;;;6.37;5.37;;;;;;;7.72;100.00;100639.44;5336375;28;20042;-72
2023/11/13 00:09:07;;;;;;;8.40;6.68;;;;;;;7.69;100.00;100633.63;5333883;28;20666;-72
2023/11/13 00:11:39;;;;;;;7.18;5.80;;;;;;;7.72;100.00;100629.03;5332627;28;20370;-72
2023/11/13 00:14:11;;;;;;;10.20;6.38;;;;;;;7.67;100.00;100625.13;5319697;28;20045;-72
2023/11/13 00:16:43;;;;;;;8.60;6.13;;;;;;;7.69;100.00;100618.84;5336333;28;20036;-71
2023/11/13 00:19:16;;;;;;;7.97;5.80;;;;;;;7.69;100.00;100618.84;5334961;28;20357;-72
2023/11/13 00:21:48;;;;;;;6.18;5.25;;;;;;;7.73;100.00;100624.66;5335239;27;20034;-72
2023/11/13 00:24:20;;;;;;;6.63;5.70;;;;;;;7.72;100.00;100628.19;5338527;27;20036;-71
2023/11/13 00:26:51;;;;;;;7.60;6.05;;;;;;;7.73;100.00;100614.25;5339305;27;20460;-71
2023/11/13 00:29:24;;;;;;;10.15;6.70;;;;;;;7.76;100.00;100611.38;5339439;27;20404;-72
2023/11/13 00:31:56;;;;;;;9.27;6.15;;;;;;;7.77;100.00;100613.06;5337710;27;20035;-72
2023/11/13 00:34:27;;;;;;;8.68;6.40;;;;;;;7.80;100.00;100607.56;5318941;27;20415;-71
2023/11/13 00:36:59;;;;;;;10.27;6.50;;;;;;;7.77;100.00;100600.84;5337653;27;20046;-72
2023/11/13 00:39:32;;;;;;;9.13;6.85;;;;;;;7.78;100.00;100593.84;5337219;27;20037;-71
2023/11/13 00:42:04;;;;;;;8.38;5.97;;;;;;;7.79;100.00;100593.72;5328823;27;20019;-72
2023/11/13 00:44:36;;;;;;;10.30;6.15;;;;;;;7.76;100.00;100598.31;5338043;27;20090;-72
2023/11/13 00:47:08;;;;;;;9.38;6.40;;;;;;;7.77;100.00;100594.78;5336682;27;20031;-72
2023/11/13 00:49:40;;;;;;;7.88;6.45;;;;;;;7.75;100.00;100591.47;5338116;27;20023;-71
2023/11/13 00:52:12;;;;;;;8.02;5.93;;;;;;;7.72;100.00;100586.47;5340390;27;20122;-71
2023/11/13 00:54:44;;;;;;;8.70;6.57;;;;;;;7.64;100.00;100573.19;5337965;27;20468;-72
2023/11/13 00:57:16;;;;;;;9.13;6.30;;;;;;;7.71;100.00;100579.59;5335997;27;20423;-72
2023/11/13 00:59:48;;;;;;;8.40;6.40;;;;;;;7.72;100.00;100576.88;5337343;27;20047;-72
2023/11/13 01:02:22;;;;;;;8.38;5.90;;;;;;;7.72;100.00;100582.09;5338268;27;20049;-72
2023/11/13 01:04:53;;;;;;;8.85;6.57;;;;;;;7.75;100.00;100581.03;5337658;27;20035;-72
2023/11/13 01:07:26;;;;;;;10.05;6.35;;;;;;;7.77;100.00;100584.38;5337082;27;20023;-71
2023/11/13 01:09:58;;;;;;;7.65;6.20;;;;;;;7.82;100.00;100568.34;5331500;27;20034;-72
2023/11/13 01:12:30;;;;;;;8.75;6.35;;;;;;;7.79;100.00;100566.81;5327715;27;20043;-72
2023/11/13 01:15:04;;;;;;;8.70;6.35;;;;;;;7.78;100.00;100571.19;5316221;27;20485;-72
2023/11/13 01:17:36;;;;;;;9.57;6.97;;;;;;;7.82;100.00;100558.75;5337470;27;20019;-72
2023/11/13 01:20:09;;;;;;;7.65;6.18;;;;;;;7.84;100.00;100558.63;5337763;27;20037;-72
2023/11/13 01:22:41;;;;;;;8.43;6.17;;;;;;;7.87;100.00;100564.44;5337853;27;20034;-71
2023/11/13 01:25:13;;;;;;;10.77;7.25;;;;;;;7.87;100.00;100559.22;5340534;27;20042;-72
2023/11/13 01:27:45;;;;;;;8.52;6.50;;;;;;;7.93;100.00;100558.75;5335651;27;20024;-72
2023/11/13 01:30:16;;;;;;;7.18;5.90;;;;;;;7.91;100.00;100560.63;5336264;27;20031;-72
2023/11/13 01:32:48;;;;;;;8.27;6.55;;;;;;;7.91;100.00;100565.03;5336138;27;20037;-72
2023/11/13 01:35:20;;;;;;;10.38;6.50;;;;;;;7.92;100.00;100549.25;5331228;27;20031;-72
2023/11/13 01:37:52;;;;;;;11.23;6.97;;;;;;;7.92;100.00;100551.88;5335101;27;20110;-72
2023/11/13 01:40:24;;;;;;;9.60;6.90;;;;;;;7.93;100.00;100550.91;5337776;27;20023;-72
2023/11/13 01:42:56;;;;;;;7.45;6.63;;;;;;;7.95;100.00;100542.97;5335291;27;20118;-72
2023/11/13 01:45:28;;;;;;;9.27;6.55;;;;;;;7.96;100.00;100536.81;5338655;27;20049;-72
2023/11/13 01:48:00;;;;;;;7.35;5.70;;;;;;;7.97;100.00;100539.28;5338616;27;20035;-71
2023/11/13 01:50:32;;;;;;;7.72;6.55;;;;;;;8.02;100.00;100537.13;5338565;27;20031;-71
2023/11/13 01:53:04;;;;;;;8.57;6.70;;;;;;;8.00;100.00;100531.22;5335746;27;20035;-72
2023/11/13 01:55:37;;;;;;;8.73;6.65;;;;;;;8.03;100.00;100533.59;5337104;27;20034;-72
2023/11/13 01:58:10;;;;;;;7.05;6.35;;;;;;;8.08;100.00;100533.22;5314003;27;20042;-72
2023/11/13 02:00:42;;;;;;;7.50;6.63;;;;;;;8.07;100.00;100531.56;5335517;27;20154;-72
2023/11/13 02:03:14;;;;;;;11.55;6.07;;;;;;;8.05;100.00;100531.69;5338202;27;20035;-72
2023/11/13 02:05:46;;;;;;;6.75;6.00;;;;;;;8.09;100.00;100532.28;5336520;27;20026;-72
2023/11/13 02:08:19;;;;;;;8.52;6.93;;;;;;;8.10;100.00;100528.69;5334717;27;20039;-72
2023/11/13 02:10:51;;;;;;;8.85;6.40;;;;;;;8.15;100.00;100533.56;5337404;27;20034;-72
2023/11/13 02:13:24;;;;;;;7.88;5.85;;;;;;;8.09;100.00;100536.66;5333574;27;20123;-72
2023/11/13 02:15:56;;;;;;;11.88;6.28;;;;;;;8.18;100.00;100530.69;5336159;27;20039;-72
2023/11/13 02:18:34;;;;;;;9.15;6.82;;;;;;;8.17;100.00;100526.44;5335665;27;20027;-72
2023/11/13 02:21:06;;;;;;;8.00;6.47;;;;;;;8.16;100.00;100523.00;5334676;27;20057;-72
2023/11/13 02:23:37;;;;;;;6.97;5.78;;;;;;;8.16;100.00;100522.19;5337542;27;20090;-72
2023/11/13 02:26:14;;;;;;;11.00;6.80;;;;;;;8.26;100.00;100523.94;5335488;27;20031;-72
2023/11/13 02:28:46;;;;;;;6.55;5.85;;;;;;;8.16;100.00;100519.56;5319400;27;20035;-72
2023/11/13 02:31:18;;;;;;;8.00;6.78;;;;;;;8.23;100.00;100513.75;5334147;27;20455;-72
2023/11/13 02:33:50;;;;;;;7.20;6.07;;;;;;;8.26;100.00;100515.28;5334748;27;20052;-72
2023/11/13 02:36:22;;;;;;;7.20;6.40;;;;;;;8.26;100.00;100505.66;5335877;27;20023;-72
2023/11/13 02:38:54;;;;;;;8.50;6.40;;;;;;;8.30;100.00;100495.81;5337176;27;20038;-72
2023/11/13 02:41:26;;;;;;;9.35;6.38;;;;;;;8.31;100.00;100496.63;5335433;27;20030;-72
2023/11/13 02:43:58;;;;;;;7.28;5.93;;;;;;;8.31;100.00;100504.47;5334804;27;20031;-71
2023/11/13 02:46:30;;;;;;;8.20;7.07;;;;;;;8.32;100.00;100490.47;5334975;27;20033;-71
2023/11/13 02:49:02;;;;;;;7.07;5.85;;;;;;;8.34;100.00;100488.56;5335572;27;20027;-72
2023/11/13 02:51:34;;;;;;;7.40;6.00;;;;;;;8.35;100.00;100485.81;5337429;27;20015;-72
2023/11/13 02:54:06;;;;;;;9.02;5.78;;;;;;;8.37;100.00;100485.69;5329867;27;20579;-72
2023/11/13 02:56:38;;;;;;;7.82;6.28;;;;;;;8.37;100.00;100483.97;5329926;27;20365;-72
2023/11/13 02:59:09;;;;;;;7.13;5.97;;;;;;;8.42;100.00;100480.97;5335052;27;20396;-72
2023/11/13 03:01:41;;;;;;;9.15;6.43;;;;;;;8.46;100.00;100496.25;5333863;27;20374;-72
2023/11/13 03:04:13;;;;;;;9.38;6.55;;;;;;;8.49;100.00;100496.00;5335037;27;20030;-72
2023/11/13 03:06:45;;;;;;;6.93;5.60;;;;;;;8.51;100.00;100503.69;5333074;27;20042;-72
2023/11/13 03:09:18;;;;;;;8.45;6.55;;;;;;;8.52;100.00;100502.75;5335646;27;20035;-72
2023/11/13 03:11:50;;;;;;;6.97;6.22;;;;;;;8.56;100.00;100505.94;5335271;27;20416;-72
2023/11/13 03:14:22;;;;;;;9.15;5.95;;;;;;;8.56;100.00;100492.88;5334092;27;20031;-72
2023/11/13 03:16:56;;;;;;;8.95;6.00;;;;;;;8.57;100.00;100499.78;5332794;27;20099;-72
2023/11/13 03:19:28;;;;;;;6.63;5.53;;;;;;;8.59;100.00;100498.69;5335804;28;20027;-71
2023/11/13 03:22:00;;;;;;;8.35;5.47;;;;;;;8.59;100.00;100495.25;5329439;28;20025;-72
2023/11/13 03:24:32;;;;;;;8.15;6.18;;;;;;;8.63;100.00;100505.31;5333923;28;20415;-72
2023/11/13 03:27:04;;;;;;;8.98;5.97;;;;;;;8.62;100.00;100498.44;5336905;28;20365;-72
2023/11/13 03:29:37;;;;;;;7.95;5.82;;;;;;;8.65;100.00;100495.56;5332310;28;20034;-71
2023/11/13 03:32:09;;;;;;;7.65;5.68;;;;;;;8.69;100.00;100496.16;5335314;28;20023;-72
2023/11/13 03:34:40;;;;;;;6.72;5.90;;;;;;;8.71;100.00;100494.22;5335720;28;20027;-72
2023/11/13 03:37:12;;;;;;;10.23;6.28;;;;;;;8.73;100.00;100484.50;5337349;28;20484;-73
2023/11/13 03:39:44;;;;;;;6.63;6.03;;;;;;;8.72;100.00;100488.06;5333079;27;20050;-72
2023/11/13 03:42:16;;;;;;;9.57;6.40;;;;;;;8.72;100.00;100496.72;5334353;28;20114;-72
2023/11/13 03:44:48;;;;;;;13.10;7.00;;;;;;;8.68;100.00;100484.06;5334046;28;20031;-72
2023/11/13 03:47:20;;;;;;;8.25;6.25;;;;;;;8.79;100.00;100478.78;5334709;28;20046;-72
2023/11/13 03:49:52;;;;;;;9.18;6.50;;;;;;;8.80;100.00;100475.19;5327932;27;20035;-72
2023/11/13 03:52:24;;;;;;;10.60;6.95;;;;;;;8.84;100.00;100487.03;5333648;28;20039;-72
2023/11/13 03:54:56;;;;;;;8.27;6.75;;;;;;;8.83;100.00;100484.56;5335004;28;20051;-72
2023/11/13 03:57:29;;;;;;;10.68;6.82;;;;;;;8.83;100.00;100487.19;5336388;27;20494;-72
2023/11/13 04:00:01;;;;;;;;;;;;;;;9.55;100.00;100478.47;5339987;27;20026;-72
2023/11/13 04:02:33;;;;;;;11.27;6.32;;;;;;;8.95;100.00;100481.75;5316855;27;19915;-72
2023/11/13 04:05:06;;;;;;;9.03;7.03;;;;;;;8.96;100.00;100477.34;5339761;27;20023;-73
2023/11/13 04:07:38;;;;;;;10.70;6.90;;;;;;;8.97;100.00;100484.22;5338822;27;20760;-72
2023/11/13 04:10:16;;;;;;;9.32;6.60;;;;;;;8.93;100.00;100481.03;5339005;27;20038;-72
2023/11/13 04:12:48;;;;;;;10.38;7.00;;;;;;;8.95;100.00;100500.03;5338051;27;20030;-72
2023/11/13 04:15:20;;;;;;;8.65;7.40;;;;;;;8.99;100.00;100485.75;5319589;27;20034;-72
2023/11/13 04:17:52;;;;;;;11.10;7.30;;;;;;;8.97;100.00;100471.97;5313827;28;20081;-72
2023/11/13 04:20:24;;;;;;;10.05;7.38;;;;;;;9.00;100.00;100476.97;5316247;28;20061;-72
2023/11/13 04:22:56;;;;;;;10.75;7.47;;;;;;;9.02;100.00;100474.22;5315535;28;20028;-72
2023/11/13 04:25:28;;;;;;;10.95;7.63;;;;;;;9.02;100.00;100479.47;5317051;28;20034;-72
2023/11/13 04:28:01;;;;;;;9.85;6.97;;;;;;;9.04;100.00;100467.06;5316749;28;20493;-72
2023/11/13 04:30:33;;;;;;;14.98;7.80;;;;;;;9.08;100.00;100463.25;5316073;28;20039;-72
2023/11/13 04:33:05;;;;;;;12.05;8.07;;;;;;;9.15;100.00;100468.78;5316172;28;20039;-72
2023/11/13 04:35:37;;;;;;;13.02;8.57;;;;;;;9.13;100.00;100468.06;5314344;28;20491;-72
2023/11/13 04:38:09;;;;;;;15.52;8.10;;;;;;;9.13;100.00;100461.09;5318421;28;20424;-72
2023/11/13 04:40:41;;;;;;;13.90;8.50;;;;;;;9.17;100.00;100456.44;5325182;27;20495;-72
2023/11/13 04:43:13;;;;;;;16.65;8.80;;;;;;;9.17;100.00;100461.66;5338908;27;20028;-72
2023/11/13 04:45:45;;;;;;;13.35;8.38;;;;;;;9.18;100.00;100452.84;5338379;27;20031;-72
2023/11/13 04:48:17;;;;;;;15.00;8.90;;;;;;;9.19;100.00;100451.88;5338151;27;20038;-72
2023/11/13 04:50:49;;;;;;;10.55;8.70;;;;;;;9.22;100.00;100446.41;5338488;27;20508;-72
2023/11/13 04:53:22;;;;;;;14.98;8.93;;;;;;;9.26;100.00;100440.78;5337980;27;20019;-72
2023/11/13 04:55:54;;;;;;;13.35;9.13;;;;;;;9.29;100.00;100431.84;5338234;27;20027;-72
2023/11/13 04:58:26;;;;;;;14.55;8.55;;;;;;;9.29;100.00;100439.69;5337579;27;20033;-72
2023/11/13 05:00:57;;;;;;;14.27;9.68;;;;;;;9.30;100.00;100422.22;5336878;27;20045;-72
2023/11/13 05:03:34;;;;;;;14.35;9.10;;;;;;;9.37;100.00;100405.06;5334193;27;20365;-72
2023/11/13 05:06:12;;;;;;;15.93;9.40;;;;;;;9.47;100.00;100403.25;5338140;27;20035;-72
2023/11/13 05:08:44;;;;;;;18.17;9.57;;;;;;;9.34;100.00;100407.91;5325792;27;20038;-72
2023/11/13 05:11:23;;;;;;;21.45;10.07;;;;;;;9.43;100.00;100394.03;5338921;27;20368;-73
2023/11/13 05:13:55;;;;;;;20.63;9.52;;;;;;;9.33;100.00;100398.44;5339418;27;20034;-72
2023/11/13 05:16:28;;;;;;;17.85;10.13;;;;;;;9.31;100.00;100388.09;5338606;27;20096;-72
2023/11/13 05:18:59;;;;;;;16.13;10.00;;;;;;;9.35;100.00;100370.34;5335494;27;20027;-72
2023/11/13 05:21:32;;;;;;;18.52;10.10;;;;;;;9.36;100.00;100366.81;5337940;27;20041;-72
2023/11/13 05:24:04;;;;;;;17.98;10.07;;;;;;;9.36;100.00;100367.63;5337703;27;20031;-72
2023/11/13 05:26:36;;;;;;;17.67;10.33;;;;;;;9.43;100.00;100352.19;5339140;27;20038;-72
2023/11/13 05:29:08;;;;;;;14.07;10.25;;;;;;;9.42;100.00;100361.84;5336066;27;20028;-72
2023/11/13 05:31:40;;;;;;;16.77;10.80;;;;;;;9.47;100.00;100370.13;5337417;27;20031;-72
2023/11/13 05:34:12;;;;;;;18.45;10.10;;;;;;;9.47;100.00;100362.28;5336824;27;20518;-72
2023/11/13 05:36:43;;;;;;;17.67;10.90;;;;;;;9.50;100.00;100358.56;5328319;27;20031;-73
2023/11/13 05:39:16;;;;;;;18.02;10.85;;;;;;;9.50;100.00;100354.16;5336848;27;20029;-73
2023/11/13 05:41:47;;;;;;;17.27;10.27;;;;;;;9.55;100.00;100352.94;5336957;27;20026;-73
2023/11/13 05:44:19;;;;;;;24.30;11.93;;;;;;;9.54;100.00;100353.88;5336419;27;20543;-73
2023/11/13 05:46:51;;;;;;;19.17;12.02;;;;;;;9.57;100.00;100351.00;5337636;27;20023;-72
2023/11/13 05:49:23;;;;;;;22.02;11.90;;;;;;;9.58;100.00;100355.25;5337473;27;20030;-73
2023/11/13 05:51:55;;;;;;;17.70;11.00;;;;;;;9.62;100.00;100359.25;5338561;27;20150;-73
2023/11/13 05:54:27;;;;;;;20.17;11.70;;;;;;;9.65;100.00;100345.91;5336740;27;20038;-73
2023/11/13 05:56:59;;;;;;;20.05;10.25;;;;;;;9.71;100.00;100353.22;5337982;27;20031;-73
2023/11/13 05:59:31;;;;;;;19.63;11.35;;;;;;;9.73;100.00;100353.91;5336590;27;20026;-73
2023/11/13 06:02:03;;;;;;;19.80;11.77;;;;;;;9.74;100.00;100356.41;5336213;27;20043;-73
2023/11/13 06:04:36;;;;;;;22.52;12.10;;;;;;;9.81;100.00;100351.44;5336843;27;20031;-73
2023/11/13 06:07:07;;;;;;;21.30;11.65;;;;;;;9.87;100.00;100345.66;5335733;27;20384;-73
2023/11/13 06:09:42;;;;;;;22.08;11.82;;;;;;;9.94;100.00;100346.75;5334822;27;20051;-73
2023/11/13 06:12:13;;;;;;;21.73;12.73;;;;;;;9.96;100.00;100351.84;5337813;27;20015;-73
2023/11/13 06:14:45;;;;;;;17.85;11.18;;;;;;;9.96;100.00;100331.75;5336198;27;20373;-74
2023/11/13 06:17:23;;;;;;;19.08;12.13;;;;;;;10.13;100.00;100340.69;5336060;27;20060;-73
2023/11/13 06:19:55;;;;;;;18.17;11.80;;;;;;;10.21;100.00;100340.81;5336999;27;20031;-74
2023/11/13 06:22:27;;;;;;;19.58;11.07;;;;;;;10.30;100.00;100341.78;5334464;27;20035;-73
2023/11/13 06:25:00;;;;;;;21.23;11.70;;;;;;;10.40;100.00;100339.97;5335574;27;20031;-73
2023/11/13 06:27:31;;;;;;;18.15;10.55;;;;;;;10.48;100.00;100340.09;5336030;27;20034;-73
2023/11/13 06:30:04;;;;;;;20.63;10.40;;;;;;;10.56;100.00;100349.03;5300878;28;20032;-73
2023/11/13 06:32:36;;;;;;;21.17;10.77;;;;;;;10.66;100.00;100341.97;5310482;28;20051;-74
2023/11/13 06:35:08;;;;;;;18.05;10.35;;;;;;;10.69;100.00;100344.31;5314938;27;20289;-73
2023/11/13 06:37:41;;;;;;;14.80;10.35;;;;;;;10.70;100.00;100359.06;5315139;28;20061;-74
2023/11/13 06:40:16;;;;;;;24.92;10.75;;;;;;;10.82;100.00;100363.16;5292395;28;20043;-73
2023/11/13 06:42:48;;;;;;;17.58;10.60;;;;;;;10.84;100.00;100365.66;5315331;28;20027;-73
2023/11/13 06:45:19;;;;;;;19.85;9.82;;;;;;;10.91;100.00;100366.69;5315905;28;20081;-73
2023/11/13 06:47:51;;;;;;;17.88;9.35;;;;;;;10.91;100.00;100358.84;5312820;28;20367;-73
2023/11/13 06:50:23;;;;;;;20.00;9.80;;;;;;;10.96;100.00;100360.06;5317739;28;20023;-73
2023/11/13 06:52:55;;;;;;;19.90;9.50;;;;;;;11.05;100.00;100360.16;5315266;28;20477;-73
2023/11/13 06:55:27;;;;;;;20.50;9.70;;;;;;;11.07;100.00;100358.25;5297755;28;20035;-73
2023/11/13 06:57:59;;;;;;;16.98;9.73;;;;;;;11.11;100.00;100359.59;5330858;27;20033;-73
2023/11/13 07:00:31;;;;;;;22.10;9.80;;;;;;;11.11;100.00;100339.44;5335900;27;20044;-73
2023/11/13 07:03:06;;;;;;;18.10;10.30;;;;;;;11.30;100.00;100333.28;5336910;27;20015;-73
2023/11/13 07:05:38;;;;;;;15.65;10.23;;;;;;;11.23;100.00;100321.72;5336559;27;20035;-73
2023/11/13 07:08:10;;;;;;;18.75;8.98;;;;;;;11.27;100.00;100315.22;5337175;27;20365;-73
2023/11/13 07:10:43;;;;;;;19.73;10.07;;;;;;;11.32;100.00;100331.31;5336739;27;20027;-73
2023/11/13 07:13:14;;;;;;;19.27;9.65;;;;;;;11.38;100.00;100328.09;5335226;27;20019;-73
2023/11/13 07:15:46;;;;;;;19.38;10.48;;;;;;;11.44;100.00;100322.28;5337029;27;20031;-73
2023/11/13 07:18:18;;;;;;;17.42;9.02;;;;;;;11.45;100.00;100316.06;5335279;27;20029;-73
2023/11/13 07:20:53;;;;;;;18.10;9.27;;;;;;;11.50;100.00;100326.09;5337100;28;20018;-72
2023/11/13 07:23:24;;;;;;;19.88;8.63;;;;;;;11.53;100.00;100314.50;5337121;28;20026;-73
2023/11/13 07:25:56;;;;;;;16.35;8.35;;;;;;;11.58;100.00;100306.97;5327205;28;20054;-72
2023/11/13 07:28:29;;;;;;;16.85;7.72;;;;;;;11.57;100.00;100298.28;5338063;28;20027;-72
2023/11/13 07:31:00;;;;;;;20.58;7.97;;;;;;;11.63;100.00;100296.84;5336966;27;20038;-73
2023/11/13 07:33:32;;;;;;;17.65;7.13;;;;;;;11.67;100.00;100293.81;5340995;27;20033;-73
2023/11/13 07:36:05;;;;;;;19.83;6.82;;;;;;;11.71;100.00;100280.38;5342550;27;20018;-73
2023/11/13 07:38:37;;;;;;;19.23;7.53;;;;;;;11.79;100.00;100267.34;5340080;27;20035;-73
2023/11/13 07:41:11;;;;;;;15.82;6.30;;;;;;;11.73;100.00;100257.44;5339446;27;20019;-72
2023/11/13 07:43:44;;;;;;;17.52;6.47;;;;;;;11.79;100.00;100256.84;5341472;27;20038;-72
2023/11/13 07:46:18;;;;;;;18.63;5.80;;;;;;;11.79;100.00;100255.03;5338620;27;20031;-73
2023/11/13 07:48:50;;;;;;;16.50;5.93;;;;;;;11.84;100.00;100251.97;5341379;27;20015;-72
2023/11/13 07:51:22;;;;;;;15.38;5.43;;;;;;;11.90;100.00;100238.25;5333037;27;20408;-73
2023/11/13 07:53:54;;;;;;;15.85;5.05;;;;;;;11.86;100.00;100229.03;5340760;27;20063;-72
2023/11/13 07:56:26;;;;;;;15.32;5.18;;;;;;;11.88;100.00;100230.50;5341316;27;20031;-73
2023/11/13 07:59:05;;;;;;;14.48;4.25;;;;;;;11.85;100.00;100230.81;5340568;27;20041;-73
2023/11/13 08:01:37;;;;;;;10.73;4.55;;;;;;;11.83;100.00;100231.94;5341065;27;20058;-72
2023/11/13 08:04:10;;;;;;;15.15;4.95;;;;;;;11.94;100.00;100252.72;5342037;27;20022;-73
2023/11/13 08:06:42;;;;;;;16.40;4.68;;;;;;;11.90;100.00;100252.19;5334565;27;20515;-73
2023/11/13 08:09:15;;;;;;;16.38;4.90;;;;;;;11.93;100.00;100254.53;5341169;27;20030;-72
2023/11/13 08:11:47;;;;;;;15.75;4.57;;;;;;;11.97;100.00;100235.81;5339250;27;20034;-73
2023/11/13 08:14:19;;;;;;;16.58;5.25;;;;;;;11.95;100.00;100220.22;5338193;27;20031;-73
2023/11/13 08:16:50;;;;;;;16.55;4.63;;;;;;;11.97;100.00;100205.16;5339419;27;20030;-73
2023/11/13 08:19:24;;;;;;;12.90;4.43;;;;;;;11.94;100.00;100197.59;5329196;27;20036;-72
2023/11/13 08:21:56;;;;;;;12.35;4.05;;;;;;;11.97;100.00;100191.19;5340081;27;20034;-72
2023/11/13 08:24:29;;;;;;;14.32;4.40;;;;;;;11.95;100.00;100187.91;5339569;27;20027;-72
2023/11/13 08:27:03;;;;;;;13.45;3.85;;;;;;;12.00;100.00;100199.56;5340061;27;20027;-72
2023/11/13 08:29:35;;;;;;;8.35;3.45;;;;;;;11.97;100.00;100199.91;5336184;27;20037;-72
2023/11/13 08:32:07;;;;;;;10.75;3.47;;;;;;;11.99;100.00;100205.00;5340059;27;20019;-72
2023/11/13 08:34:39;;;;;;;11.40;3.10;;;;;;;12.00;100.00;100196.13;5338780;27;20028;-72
2023/11/13 08:37:11;;;;;;;12.15;3.50;;;;;;;12.01;100.00;100189.88;5337727;27;20485;-72
2023/11/13 08:39:43;;;;;;;8.43;3.30;;;;;;;12.01;100.00;100182.88;5340900;27;20025;-72
2023/11/13 08:42:15;;;;;;;12.57;2.85;;;;;;;12.01;100.00;100172.38;5341828;27;20025;-72
2023/11/13 08:44:48;;;;;;;15.73;3.50;;;;;;;11.99;100.00;100165.63;5336353;27;20023;-72
2023/11/13 08:47:21;;;;;;;;;;;;;;;12.67;100.00;100168.19;5333774;27;20035;-72
2023/11/13 08:49:53;;;;;;;10.30;2.80;;;;;;;12.07;100.00;100163.03;5341694;27;19927;-72
2023/11/13 08:52:25;;;;;;;10.77;3.35;;;;;;;12.03;100.00;100148.56;5338780;27;20036;-71
2023/11/13 08:54:57;;;;;;;10.07;2.67;;;;;;;12.06;100.00;100130.69;5338859;27;20027;-72
2023/11/13 08:57:29;;;;;;;8.80;2.78;;;;;;;12.02;100.00;100104.94;5340029;27;20023;-72
2023/11/13 09:00:01;;;;;;;7.95;2.50;;;;;;;12.00;100.00;100091.13;5339467;27;20015;-72
2023/11/13 09:02:35;;;;;;;7.55;2.47;;;;;;;11.98;100.00;100086.03;5338634;27;20511;-72
2023/11/13 09:05:07;;;;;;;8.70;2.40;;;;;;;11.99;100.00;100079.81;5338797;27;20031;-72
2023/11/13 09:07:41;;;;;;;10.73;2.60;;;;;;;11.99;100.00;100073.72;5333207;27;20035;-72
2023/11/13 09:10:16;;;;;;;6.35;2.35;;;;;;;11.99;100.00;100066.69;5339792;27;20035;-72
2023/11/13 09:12:48;;;;;;;5.65;1.65;;;;;;;11.98;100.00;100057.16;5333613;27;20027;-72
2023/11/13 09:15:19;;;;;;;8.57;2.00;;;;;;;11.98;100.00;100053.72;5327143;27;20046;-72
2023/11/13 09:17:54;;;;;;;6.55;1.75;;;;;;;11.95;100.00;100043.53;5335643;27;20029;-72
2023/11/13 09:20:27;;;;;;;6.75;2.10;;;;;;;11.93;100.00;100044.53;5335297;27;20038;-72
2023/11/13 09:23:00;;;;;;;9.15;2.35;;;;;;;11.98;100.00;100035.34;5339936;27;20031;-72
2023/11/13 09:25:32;;;;;;;6.40;1.63;;;;;;;11.97;100.00;100024.03;5338395;27;20031;-72
2023/11/13 09:28:05;;;;;;;6.03;2.40;;;;;;;11.93;100.00;100005.16;5336075;27;20464;-73
2023/11/13 09:30:36;;;;;;;5.65;1.75;;;;;;;11.95;100.00;100009.41;5336364;27;20032;-72
2023/11/13 09:33:10;;;;;;;5.05;1.90;;;;;;;11.96;100.00;100005.78;5337942;27;20030;-72
2023/11/13 09:35:42;;;;;;;6.22;1.95;;;;;;;11.96;100.00;99992.66;5336806;27;20032;-72
2023/11/13 09:38:14;;;;;;;5.93;2.17;;;;;;;11.94;100.00;100000.72;5337423;27;20519;-72
2023/11/13 09:40:47;;;;;;;5.88;1.95;;;;;;;11.92;100.00;99992.97;5329603;27;20484;-72
2023/11/13 09:43:30;;;;;;;6.27;1.70;;;;;;;12.14;100.00;99996.00;5337116;27;20031;-72
2023/11/13 09:46:06;;;;;;;6.43;1.80;;;;;;;11.98;100.00;99988.91;5339919;27;20026;-72
2023/11/13 09:48:50;;;;;;;6.57;2.00;;;;;;;12.19;100.00;99988.44;5333945;27;20366;-72
2023/11/13 09:51:24;;;;;;;5.32;1.90;;;;;;;11.99;100.00;99966.91;5334952;27;20046;-72
2023/11/13 09:53:57;;;;;;;5.03;1.88;;;;;;;12.02;100.00;99963.16;5338286;27;20514;-72
2023/11/13 09:56:30;;;;;;;5.93;2.20;;;;;;;12.06;100.00;99953.97;5335862;27;20027;-71
2023/11/13 09:59:05;;;;;;;6.72;1.77;;;;;;;12.04;100.00;99946.25;5336582;27;20019;-72
2023/11/13 10:01:39;;;;;;;7.22;2.17;;;;;;;12.03;100.00;99951.66;5335238;27;20517;-72
2023/11/13 10:04:11;;;;;;;7.95;2.10;;;;;;;12.06;100.00;99946.09;5336693;27;20031;-72
2023/11/13 10:06:52;;;;;;;5.38;1.98;;;;;;;12.18;100.00;99934.28;5334244;27;20396;-72
2023/11/13 10:09:26;;;;;;;8.15;2.10;;;;;;;12.14;100.00;99940.84;5313640;27;20031;-72
2023/11/13 10:11:59;;;;;;;5.20;2.10;;;;;;;12.17;100.00;99933.47;5315553;28;20397;-72
2023/11/13 10:14:31;;;;;;;5.35;2.47;;;;;;;12.22;100.00;99933.00;5313632;28;20040;-72
2023/11/13 10:17:04;;;;;;;7.03;2.30;;;;;;;12.24;100.00;99925.78;5314123;28;20284;-73
2023/11/13 10:19:35;;;;;;;6.00;2.17;;;;;;;12.29;100.00;99918.22;5315715;28;20035;-72
2023/11/13 10:22:15;;;;;;;10.38;2.85;;;;;;;12.46;100.00;99902.44;5316753;28;20045;-72
2023/11/13 10:24:57;;;;;;;7.57;2.70;;;;;;;12.47;100.00;99901.50;5316049;28;20039;-72
2023/11/13 10:27:29;;;;;;;7.57;2.50;;;;;;;12.45;100.00;99901.63;5291514;28;20028;-72
2023/11/13 10:30:06;;;;;;;6.38;2.97;;;;;;;12.52;100.00;99893.91;5317604;28;20034;-72
2023/11/13 10:32:38;;;;;;;9.57;2.80;;;;;;;12.49;100.00;99889.81;5315304;28;20027;-72
2023/11/13 10:35:10;;;;;;;8.60;3.20;;;;;;;12.62;100.00;99884.06;5322099;27;20027;-73
2023/11/13 10:37:55;;;;;;;6.93;2.65;;;;;;;12.83;100.00;99863.28;5339101;27;20035;-73
2023/11/13 10:40:27;;;;;;;7.22;2.50;;;;;;;12.74;100.00;99853.81;5338021;27;20027;-72
2023/11/13 10:43:04;;;;;;;11.02;3.38;;;;;;;12.82;100.00;99848.53;5337276;27;20043;-73
2023/11/13 10:45:44;;;;;;;10.57;3.67;;;;;;;13.04;100.00;99848.78;5337456;27;20034;-72
2023/11/13 10:48:22;;;;;;;11.98;3.25;;;;;;;13.06;100.00;99828.38;5337104;27;20023;-73
2023/11/13 10:50:56;;;;;;;12.93;3.33;;;;;;;13.09;100.00;99820.16;5338181;27;20101;-73
2023/11/13 10:53:30;;;;;;;13.68;3.70;;;;;;;13.15;100.00;99828.19;5337640;27;20026;-73
2023/11/13 10:56:03;;;;;;;12.02;3.70;;;;;;;13.24;100.00;99823.72;5337376;27;20034;-73
2023/11/13 10:58:36;;;;;;;9.88;2.92;;;;;;;13.28;100.00;99819.75;5338860;27;20023;-73
2023/11/13 11:01:10;;;;;;;13.82;3.95;;;;;;;13.34;100.00;99821.72;5338648;27;20396;-73
2023/11/13 11:03:47;;;;;;;10.73;3.78;;;;;;;13.46;100.00;99801.09;5338900;27;20027;-73
2023/11/13 11:06:22;;;;;;;13.05;4.05;;;;;;;13.41;100.00;99790.28;5338475;27;20035;-73
2023/11/13 11:08:57;;;;;;;11.27;4.20;;;;;;;13.45;100.00;99788.94;5339064;27;20038;-73
2023/11/13 11:11:34;;;;;;;14.07;4.15;;;;;;;13.52;100.00;99774.06;5338431;27;20481;-73
2023/11/13 11:14:19;;;;;;;11.45;3.78;;;;;;;13.63;100.00;99775.47;5333909;27;20034;-73
2023/11/13 11:17:25;;;;;;;10.57;4.38;;;;;;;13.87;100.00;99769.22;5336950;27;20081;-72
2023/11/13 11:20:05;;;;;;;8.95;3.20;;;;;;;13.69;100.00;99752.91;5336164;27;20031;-73
2023/11/13 11:22:45;;;;;;;12.40;3.25;;;;;;;13.68;100.00;99741.56;5338280;28;20518;-72
2023/11/13 11:25:46;;;;;;;12.38;4.35;;;;;;;13.93;100.00;99741.34;5338491;28;20030;-71
2023/11/13 11:28:44;;;;;;;17.17;4.32;;;;;;;14.00;100.00;99731.72;5336770;28;20027;-72
2023/11/13 11:31:44;;;;;;;16.33;3.50;;;;;;;14.07;100.00;99720.28;5336026;28;20392;-71
2023/11/13 11:34:19;;;;;;;11.82;3.72;;;;;;;13.80;100.00;99721.72;5338918;28;20038;-72
2023/11/13 11:36:52;;;;;;;10.13;3.85;;;;;;;13.83;100.00;99712.66;5338119;28;20026;-72
2023/11/13 11:39:25;;;;;;;9.70;3.53;;;;;;;13.95;100.00;99707.75;5337761;28;20023;-72
2023/11/13 11:41:57;;;;;;;14.32;4.40;;;;;;;13.97;100.00;99700.47;5318652;28;20038;-72
2023/11/13 11:44:45;;;;;;;12.32;3.80;;;;;;;14.23;100.00;99692.13;5339239;28;20034;-72